Latest Weather Observations for Yarrawonga

IDV60801

Issued at 11:02 am EDT Saturday 6 February 2016 (issued every 30 minutes, with the page automatically refreshed every 10 minutes)

About weather observations | Map of weather stations | Latest weather observations for VIC | Other Formats
Station Details ID: 081124 Name: YARRAWONGA Lat: -36.03 Lon: 146.03 Height: 128.9 m
Data from the previous 72 hours. | See also: Recent months at Yarrawonga
Date/Time
EDT
Temp
°C
App
Temp
°C
Dew
Point
Rel
Hum
%
Delta-T
°C
Wind Press
QNH
hPa
Press
MSL
hPa
Rain
since 9 am
mm
Dir
 
Spd
km/h
Gust
km/h
Spd
kts
Gust
kts
06/11:00am 25.2 24.9 13.4 48 6.9 ENE 7 17 4 9 1018.1 1017.5 0.0
06/10:30am 24.4 24.6 14.8 55 5.7 ENE 7 13 4 7 1018.3 1017.7 0.0
06/10:00am 23.1 22.9 14.7 59 5.0 ENE 9 19 5 10 1018.4 1017.8 0.0
06/09:30am 21.8 21.1 14.4 63 4.4 NE 11 15 6 8 1018.5 1017.9 0.0
06/09:00am 21.3 21.2 14.9 67 3.8 NE 9 17 5 9 1018.5 1017.9 0.0
06/08:30am 20.6 21.0 15.4 72 3.1 NE 7 13 4 7 1018.5 1017.9 0.0
06/08:00am 19.6 20.0 14.8 74 2.8 NE 6 9 3 5 1018.3 1017.7 0.0
06/07:30am 18.2 19.3 15.6 85 1.5 ENE 4 6 2 3 1018.0 1017.4 0.0
06/07:00am 16.5 16.7 14.2 86 1.3 NE 6 7 3 4 1017.6 1017.0 0.0
06/06:30am 16.6 16.8 14.2 86 1.4 NE 6 7 3 4 1017.3 1016.7 0.0
06/06:00am 16.5 16.7 14.2 86 1.3 NE 6 9 3 5 1017.0 1016.4 0.0
06/05:30am 17.3 17.5 14.6 84 1.6 NNE 7 13 4 7 1016.8 1016.2 0.0
06/05:00am 17.6 17.3 14.5 82 1.8 NNE 9 13 5 7 1016.8 1016.2 0.0
06/04:30am 18.0 17.7 14.5 80 2.0 NNE 9 13 5 7 1016.6 1016.0 0.0
06/04:00am 18.5 18.3 14.6 78 2.3 NNE 9 15 5 8 1016.5 1015.9 0.0
06/03:30am 18.9 18.2 14.4 75 2.6 NNE 11 17 6 9 1016.5 1015.9 0.0
06/03:00am 19.5 19.2 14.5 73 2.9 N 9 13 5 7 1016.6 1016.0 0.0
06/02:30am 19.9 19.2 14.3 70 3.3 N 11 19 6 10 1016.5 1015.9 0.0
06/02:00am 20.6 19.0 13.8 65 3.9 NNE 15 22 8 12 1016.4 1015.8 0.0
06/01:30am 20.4 19.5 13.8 66 3.8 NNE 11 17 6 9 1016.6 1016.0 0.0
06/01:00am 20.9 20.3 13.6 63 4.2 NNE 9 13 5 7 1016.7 1016.1 0.0
06/12:30am 21.9 20.5 13.3 58 5.0 NNE 13 17 7 9 1016.7 1016.1 0.0
06/12:00am 21.2 21.3 15.5 70 3.4 NNE 9 11 5 6 1016.5 1015.9 0.0
 
Date/Time
EDT
Temp
°C
App
Temp
°C
Dew
Point
Rel
Hum
%
Delta-T
°C
Wind Press
QNH
hPa
Press
MSL
hPa
Rain
since 9 am
mm
Dir
 
Spd
km/h
Gust
km/h
Spd
kts
Gust
kts
05/11:30pm 18.9 18.9 13.7 72 3.0 ESE 6 6 3 3 1016.1 1015.5 0.0
05/11:00pm 20.0 20.9 13.0 64 4.0 CALM 0 0 0 0 1016.0 1015.4 0.0
05/10:30pm 21.0 21.4 11.1 53 5.5 CALM 0 0 0 0 1015.9 1015.3 0.0
05/10:00pm 20.9 21.4 11.5 55 5.2 CALM 0 2 0 1 1015.8 1015.2 0.0
05/09:30pm 21.1 21.1 12.5 58 4.9 ESE 4 6 2 3 1015.5 1014.9 0.0
05/09:00pm 23.8 23.2 10.5 43 7.4 SE 4 4 2 2 1015.3 1014.7 0.0
05/08:30pm 25.0 24.2 9.7 38 8.4 E 4 6 2 3 1015.0 1014.4 0.0
05/08:00pm 27.2 26.3 10.8 36 9.3 E 6 7 3 4 1014.8 1014.3 0.0
05/07:30pm 28.6 26.9 8.3 28 11.1 ENE 7 11 4 6 1014.6 1014.1 0.0
05/07:00pm 29.2 26.8 8.8 28 11.3 ENE 11 13 6 7 1014.4 1013.9 0.0
05/06:30pm 29.5 27.1 8.5 27 11.6 ENE 11 19 6 10 1014.3 1013.8 0.0
05/06:00pm 29.6 27.7 7.5 25 12.0 ENE 7 13 4 7 1014.4 1013.9 0.0
05/05:30pm 29.9 27.6 8.9 27 11.7 NE 11 17 6 9 1014.5 1014.0 0.0
05/05:00pm 29.8 28.0 7.1 24 12.3 SSE 6 17 3 9 1014.7 1014.2 0.0
05/04:30pm 29.7 26.6 8.7 27 11.7 NE 15 28 8 15 1015.0 1014.4 0.0
05/04:00pm 29.6 27.0 9.2 28 11.4 ENE 13 20 7 11 1015.3 1014.7 0.0
05/03:30pm 29.3 26.6 7.2 25 12.0 ESE 11 22 6 12 1015.7 1015.1 0.0
05/03:00pm 28.9 27.4 8.6 28 11.2 SE 6 11 3 6 1016.0 1015.4 0.0
05/02:30pm 28.5 26.4 8.2 28 11.1 ESE 9 19 5 10 1016.4 1015.8 0.0
05/02:00pm 28.1 26.3 7.9 28 11.0 SE 7 15 4 8 1016.8 1016.2 0.0
05/01:30pm 27.2 24.3 6.6 27 10.9 ESE 11 19 6 10 1017.2 1016.6 0.0
05/01:00pm 26.3 24.1 7.8 31 9.9 SE 9 19 5 10 1017.5 1016.9 0.0
05/12:30pm 25.8 23.5 7.4 31 9.8 SSE 9 19 5 10 1018.0 1017.4 0.0
05/12:00pm 25.1 23.7 9.0 36 8.8 NE 6 15 3 8 1018.3 1017.7 0.0
05/11:30am 24.5 23.2 9.3 38 8.3 NE 6 11 3 6 1018.7 1018.1 0.0
05/11:00am 24.2 22.9 10.1 41 7.8 ENE 7 13 4 7 1018.8 1018.2 0.0
05/10:30am 23.3 22.0 9.3 41 7.6 SSE 6 13 3 7 1018.9 1018.3 0.0
05/10:00am 22.8 21.9 10.6 46 6.7 ESE 6 13 3 7 1018.8 1018.2 0.0
05/09:30am 22.0 20.8 11.7 52 5.8 ESE 9 17 5 9 1018.9 1018.3 0.0
05/09:00am 20.4 19.3 11.9 58 4.8 ESE 9 15 5 8 1018.9 1018.3 0.0
05/08:30am 19.4 18.4 12.2 63 4.0 ESE 9 13 5 7 1018.8 1018.2 0.0
05/08:00am 18.2 18.2 12.4 69 3.2 ESE 4 7 2 4 1018.5 1017.9 0.0
05/07:30am 16.0 16.9 12.9 82 1.7 CALM 0 0 0 0 1018.0 1017.4 0.0
05/07:00am 14.3 14.9 12.0 86 1.2 CALM 0 0 0 0 1017.5 1016.9 0.0
05/06:30am 14.2 14.8 11.9 86 1.2 CALM 0 0 0 0 1017.2 1016.6 0.0
05/06:00am 14.5 13.9 11.7 83 1.5 ESE 6 7 3 4 1016.9 1016.3 0.0
05/05:30am 14.7 13.9 11.8 83 1.6 ESE 7 7 4 4 1016.7 1016.1 0.0
05/05:00am 14.8 14.7 12.1 84 1.5 ESE 4 6 2 3 1016.3 1015.7 0.0
05/04:30am 14.7 13.9 11.8 83 1.6 SE 7 11 4 6 1016.1 1015.5 0.0
05/04:00am 15.0 14.6 12.3 84 1.5 SE 6 7 3 4 1016.0 1015.4 0.0
05/03:30am 15.1 14.7 12.4 84 1.5 ESE 6 9 3 5 1015.8 1015.2 0.0
05/03:00am 15.4 14.9 12.5 83 1.6 ESE 7 11 4 6 1015.8 1015.2 0.0
05/02:30am 15.8 15.8 12.4 80 1.9 ESE 4 7 2 4 1015.8 1015.2 0.0
05/02:00am 17.0 16.6 12.5 75 2.5 SE 6 7 3 4 1015.8 1015.2 0.0
05/01:30am 17.4 17.0 12.5 73 2.7 SE 6 9 3 5 1015.7 1015.1 0.0
05/01:00am 19.1 18.3 12.8 67 3.6 SE 9 13 5 7 1015.6 1015.0 0.0
05/12:30am 18.6 17.8 12.8 69 3.3 SE 9 11 5 6 1015.3 1014.7 0.0
05/12:00am 19.3 18.6 13.3 68 3.4 SSE 9 11 5 6 1015.1 1014.5 0.0
 
Date/Time
EDT
Temp
°C
App
Temp
°C
Dew
Point
Rel
Hum
%
Delta-T
°C
Wind Press
QNH
hPa
Press
MSL
hPa
Rain
since 9 am
mm
Dir
 
Spd
km/h
Gust
km/h
Spd
kts
Gust
kts
04/11:30pm 20.3 19.3 13.5 65 3.9 SSE 11 15 6 8 1014.8 1014.3 0.0
04/11:00pm 20.9 20.9 14.3 66 3.9 SSE 7 9 4 5 1014.7 1014.2 0.0
04/10:30pm 22.3 21.8 13.9 59 4.9 SSE 9 11 5 6 1014.5 1014.0 0.0
04/10:00pm 22.9 22.7 14.7 60 4.9 S 9 11 5 6 1014.3 1013.8 0.0
04/09:30pm 23.7 23.8 14.4 56 5.5 SE 7 11 4 6 1013.8 1013.2 0.0
04/09:00pm 24.4 24.8 14.8 55 5.8 SE 6 9 3 5 1013.3 1012.7 0.0
04/08:30pm 25.3 24.3 12.2 44 7.6 SE 9 17 5 9 1012.9 1012.3 0.0
04/08:00pm 29.0 28.5 12.0 35 9.9 SE 6 7 3 4 1012.5 1011.9 0.0
04/07:30pm 30.3 28.5 10.8 30 11.2 SE 11 15 6 8 1012.1 1011.5 0.0
04/07:00pm 30.9 29.1 10.8 29 11.6 SSE 11 19 6 10 1011.8 1011.2 0.0
04/06:30pm 30.9 29.1 10.8 29 11.6 SE 11 22 6 12 1011.6 1011.0 0.0
04/06:00pm 31.2 29.0 9.4 26 12.3 ESE 11 19 6 10 1011.5 1010.9 0.0
04/05:30pm 31.7 28.1 9.8 26 12.5 ESE 19 32 10 17 1011.5 1010.9 0.0
04/05:00pm 31.5 30.1 10.8 28 12.0 SSE 9 15 5 8 1011.7 1011.1 0.0
04/04:30pm 30.4 28.9 10.4 29 11.5 SSE 9 19 5 10 1011.9 1011.3 0.0
04/04:00pm 29.8 28.1 11.3 32 10.7 SSE 11 24 6 13 1012.1 1011.5 0.0
04/03:30pm 29.9 28.9 12.3 33 10.4 SSW 9 22 5 12 1012.5 1011.9 0.0
04/03:00pm 29.4 28.4 12.3 34 10.1 SE 9 20 5 11 1012.8 1012.2 0.0
04/02:30pm 28.8 28.0 13.9 40 9.0 SSE 11 22 6 12 1013.2 1012.6 0.0
04/02:00pm 27.8 27.2 12.2 38 9.1 ESE 7 15 4 8 1013.6 1013.0 0.0
04/01:30pm 28.2 27.4 14.1 42 8.5 SSE 11 17 6 9 1014.1 1013.6 0.0
04/01:00pm 26.9 26.7 12.9 42 8.2 SE 6 15 3 8 1014.2 1013.7 0.0
04/12:30pm 26.0 25.5 12.8 44 7.7 SSW 7 22 4 12 1014.4 1013.9 0.0
04/12:00pm 25.2 23.8 12.1 44 7.5 SSE 11 19 6 10 1014.6 1014.1 0.0
04/11:30am 24.8 23.7 12.1 45 7.3 SE 9 17 5 9 1014.7 1014.2 0.0
04/11:00am 23.2 20.9 10.3 44 7.1 SE 13 22 7 12 1014.7 1014.2 0.0
04/10:30am 22.9 20.1 10.0 44 7.1 SE 15 24 8 13 1014.7 1014.2 0.0
04/10:00am 21.8 18.4 9.0 44 6.8 SSE 17 24 9 13 1014.5 1014.0 0.0
04/09:30am 21.0 18.2 8.6 45 6.6 SSE 13 20 7 11 1014.6 1014.1 0.0
04/09:00am 18.9 16.5 10.2 57 4.7 S 13 17 7 9 1014.7 1014.2 0.0
04/08:30am 17.1 15.1 10.0 63 3.8 S 11 17 6 9 1014.5 1014.0 0.0
04/08:00am 15.4 13.7 10.0 70 2.8 SSW 9 13 5 7 1014.2 1013.7 0.0
04/07:30am 14.1 12.3 9.3 73 2.5 S 9 13 5 7 1014.1 1013.6 0.0
04/07:00am 12.8 10.6 9.3 79 1.8 S 11 13 6 7 1014.0 1013.5 0.0
04/06:30am 12.9 10.6 9.0 77 2.0 S 11 15 6 8 1013.5 1012.9 0.0
04/06:00am 13.4 10.3 8.9 74 2.3 S 15 20 8 11 1013.0 1012.4 0.0
04/05:30am 13.8 10.8 9.3 74 2.3 S 15 24 8 13 1012.5 1011.9 0.0
04/05:00am 13.9 10.1 9.1 73 2.5 S 19 22 10 12 1012.1 1011.5 0.0
04/04:30am 14.0 11.0 9.2 73 2.5 S 15 22 8 12 1011.8 1011.2 0.0
04/04:00am 14.0 11.1 9.6 75 2.3 S 15 20 8 11 1011.6 1011.0 0.0
04/03:30am 14.5 11.2 9.7 73 2.5 S 17 24 9 13 1011.6 1011.0 0.0
04/03:00am 14.6 11.0 9.8 73 2.5 S 19 28 10 15 1011.4 1010.8 0.0
04/02:30am 15.0 11.4 10.0 72 2.6 SSW 19 24 10 13 1011.3 1010.7 0.0
04/02:00am 15.7 11.6 10.2 70 2.9 S 22 33 12 18 1011.2 1010.6 0.0
04/01:30am 16.0 11.2 10.3 69 3.0 S 26 35 14 19 1011.2 1010.6 0.0
04/01:00am 16.3 11.8 10.2 67 3.2 SSW 24 35 13 19 1011.3 1010.7 0.0
04/12:30am 16.7 12.3 10.3 66 3.4 SSW 24 37 13 20 1011.0 1010.4 0.0
04/12:00am 17.0 12.6 10.4 65 3.5 SSW 24 33 13 18 1010.8 1010.2 0.0
 
Date/Time
EDT
Temp
°C
App
Temp
°C
Dew
Point
Rel
Hum
%
Delta-T
°C
Wind Press
QNH
hPa
Press
MSL
hPa
Rain
since 9 am
mm
Dir
 
Spd
km/h
Gust
km/h
Spd
kts
Gust
kts
03/11:30pm 17.6 13.3 10.9 65 3.6 SSW 24 35 13 19 1010.7 1010.1 0.0
03/11:00pm 17.8 13.9 12.0 69 3.2 SSW 24 35 13 19 1010.5 1009.9 0.0
03/10:30pm 17.9 15.5 12.6 71 3.0 SW 17 22 9 12 1010.5 1009.9 0.0
03/10:00pm 18.5 15.7 13.1 71 3.1 SSW 20 33 11 18 1010.4 1009.8 0.0
03/09:30pm 19.0 15.5 13.4 70 3.2 SSW 24 33 13 18 1010.0 1009.4 0.0
03/09:00pm 19.6 14.8 14.0 70 3.2 SSW 32 43 17 23 1009.4 1008.8 0.0
03/08:30pm 20.4 15.1 14.3 68 3.6 SSW 35 50 19 27 1009.0 1008.4 0.0
03/08:00pm 22.0 16.7 15.4 66 4.0 SSW 37 50 20 27 1008.6 1008.0 0.0
03/07:30pm 23.1 19.0 16.4 66 4.1 SSW 33 43 18 23 1007.9 1007.3 0.0
03/07:00pm 22.7 18.6 16.5 68 3.8 SSW 33 43 18 23 1007.6 1007.0 0.0
03/06:30pm 23.2 19.5 17.0 68 3.8 SSW 32 46 17 25 1006.9 1006.2 0.0
03/06:00pm 23.9 20.5 17.6 68 4.0 SSW 32 43 17 23 1006.3 1005.7 0.0
03/05:30pm 24.9 23.7 17.6 64 4.6 S 20 32 11 17 1006.0 1005.4 0.0
03/05:00pm 24.6 21.6 17.8 66 4.3 S 30 43 16 23 1005.9 1005.3 0.0
03/04:30pm 25.3 22.2 18.5 66 4.3 SSW 32 41 17 22 1005.6 1005.0 0.0
03/04:00pm 25.6 23.1 18.0 63 4.8 S 28 44 15 24 1005.3 1004.7 0.0
03/03:30pm 25.5 23.3 17.9 63 4.8 S 26 35 14 19 1005.4 1004.8 0.0
03/03:00pm 25.2 23.0 18.6 67 4.2 S 28 37 15 20 1005.3 1004.7 0.0
03/02:30pm 24.7 22.2 18.9 70 3.7 S 30 37 16 20 1005.4 1004.8 0.0
03/02:00pm 24.4 22.3 19.0 72 3.5 SSW 28 35 15 19 1005.3 1004.7 0.0
03/01:30pm 24.9 24.2 19.5 72 3.5 S 22 35 12 19 1005.3 1004.7 0.0
03/01:00pm 23.3 22.6 19.5 79 2.5 S 22 32 12 17 1005.1 1004.5 0.0
03/12:30pm 21.7 21.3 19.3 86 1.5 S 20 30 11 16 1005.5 1004.9 0.0
03/12:00pm 20.8 21.0 19.3 91 1.0 S 17 24 9 13 1005.6 1005.0 0.0
03/11:30am 21.7 20.8 18.3 81 2.1 S 20 28 11 15 1005.3 1004.7 0.0

Other Formats:

Comma delimited format used in spreadsheet applications
http://www.bom.gov.au/fwo/IDV60801/IDV60801.94862.axf

JavaScript Object Notation format (JSON) in row-major order
http://www.bom.gov.au/fwo/IDV60801/IDV60801.94862.json